createdAt,value
2019-05-15T00:00:32.677Z,0
2019-05-15T00:01:33.090Z,0
2019-05-15T00:02:34.441Z,0
2019-05-15T00:03:38.834Z,0
2019-05-15T00:04:38.324Z,0
2019-05-15T00:05:38.937Z,0
2019-05-15T00:06:39.725Z,0
2019-05-15T00:07:41.084Z,0
2019-05-15T00:08:42.446Z,0
2019-05-15T00:09:43.787Z,0
2019-05-15T00:10:45.136Z,0
2019-05-15T00:11:48.031Z,0
2019-05-15T00:12:48.607Z,0
2019-05-15T00:13:49.110Z,0
2019-05-15T00:14:50.460Z,0
2019-05-15T00:15:51.810Z,0
2019-05-15T00:16:53.157Z,0
2019-05-15T00:17:54.512Z,0
2019-05-15T00:18:55.861Z,0
2019-05-15T00:19:58.219Z,0
2019-05-15T00:20:59.476Z,0
2019-05-15T00:21:59.842Z,0
2019-05-15T00:23:01.210Z,0
2019-05-15T00:24:02.576Z,0
2019-05-15T00:25:03.901Z,0
2019-05-15T00:26:05.256Z,0
2019-05-15T00:27:08.036Z,0
2019-05-15T00:28:09.374Z,0
2019-05-15T00:29:15.117Z,0
2019-05-15T00:30:10.548Z,0
2019-05-15T00:31:11.981Z,0
2019-05-15T00:32:13.328Z,0
2019-05-15T00:33:14.696Z,0
2019-05-15T00:34:18.110Z,0
2019-05-15T00:35:18.426Z,0
2019-05-15T00:36:19.252Z,0
2019-05-15T00:37:19.971Z,0
2019-05-15T00:38:21.351Z,0
2019-05-15T00:39:22.708Z,0
2019-05-15T00:40:24.058Z,0
2019-05-15T00:41:25.406Z,0
2019-05-15T00:42:28.359Z,0
2019-05-15T00:43:29.085Z,0
2019-05-15T00:44:29.373Z,0
2019-05-15T00:45:30.722Z,0
2019-05-15T00:46:32.091Z,0
2019-05-15T00:47:33.433Z,0
2019-05-15T00:48:34.781Z,0
2019-05-15T00:49:38.086Z,0
2019-05-15T00:50:38.761Z,0
2019-05-15T00:51:38.988Z,0
2019-05-15T00:52:40.062Z,0
2019-05-15T00:53:41.430Z,0
2019-05-15T00:54:42.784Z,0
2019-05-15T00:55:44.127Z,0
2019-05-15T00:56:45.483Z,0
2019-05-15T00:57:48.436Z,0
2019-05-15T00:58:48.277Z,0
2019-05-15T00:59:49.452Z,0
2019-05-15T01:00:50.800Z,0
2019-05-15T01:01:52.141Z,0
2019-05-15T01:02:53.497Z,0
2019-05-15T01:03:54.846Z,0
2019-05-15T01:04:58.181Z,0
2019-05-15T01:05:58.609Z,0
2019-05-15T01:06:58.970Z,0
2019-05-15T01:08:00.128Z,0
2019-05-15T01:09:01.481Z,0
2019-05-15T01:10:42.348Z,0
2019-05-15T01:11:43.688Z,0
2019-05-15T01:12:45.043Z,0
2019-05-15T01:13:48.047Z,0
2019-05-15T01:14:49.017Z,0
2019-05-15T01:15:49.184Z,0
2019-05-15T01:16:50.318Z,0
2019-05-15T01:17:51.659Z,0
2019-05-15T01:18:53.017Z,0
2019-05-15T01:19:54.356Z,0
2019-05-15T01:20:55.704Z,0
2019-05-15T01:21:58.549Z,0
2019-05-15T01:22:59.157Z,0
2019-05-15T01:23:59.788Z,0
2019-05-15T01:25:01.137Z,0
2019-05-15T01:26:02.488Z,0
2019-05-15T01:27:03.843Z,0
2019-05-15T01:28:05.193Z,0
2019-05-15T01:29:08.899Z,0
2019-05-15T01:30:08.941Z,0
2019-05-15T01:31:09.163Z,0
2019-05-15T01:32:10.512Z,0
2019-05-15T01:33:11.858Z,0
2019-05-15T01:34:13.222Z,0
2019-05-15T01:35:14.567Z,0
2019-05-15T01:36:15.921Z,0
2019-05-15T01:37:18.826Z,0
2019-05-15T01:38:18.898Z,0
2019-05-15T01:39:19.978Z,0
2019-05-15T01:40:21.327Z,0
2019-05-15T01:41:22.677Z,0
2019-05-15T01:42:24.014Z,0
2019-05-15T01:43:25.367Z,0
2019-05-15T01:44:28.548Z,0
2019-05-15T01:45:28.593Z,0
2019-05-15T01:46:29.349Z,0
2019-05-15T01:47:30.696Z,0
2019-05-15T01:48:32.038Z,0
2019-05-15T01:49:33.388Z,0
2019-05-15T01:50:34.741Z,0
2019-05-15T01:51:38.367Z,0
2019-05-15T01:52:39.084Z,0
2019-05-15T01:53:38.774Z,0
2019-05-15T01:54:40.034Z,0
2019-05-15T01:55:41.373Z,0
2019-05-15T01:56:42.723Z,0
2019-05-15T01:57:44.063Z,0
2019-05-15T01:58:45.407Z,0
2019-05-15T01:59:55.655Z,0
2019-05-15T02:00:48.370Z,0
2019-05-15T02:01:49.376Z,0
2019-05-15T02:02:50.716Z,0
2019-05-15T02:03:52.075Z,0
2019-05-15T02:04:53.419Z,0
2019-05-15T02:05:54.879Z,0
2019-05-15T02:06:58.737Z,0
2019-05-15T02:07:58.498Z,0
2019-05-15T02:08:58.987Z,0
2019-05-15T02:10:00.337Z,0
2019-05-15T02:11:01.688Z,0
2019-05-15T02:12:03.043Z,0
2019-05-15T02:13:04.382Z,0
2019-05-15T02:14:08.095Z,0
2019-05-15T02:15:08.539Z,0
2019-05-15T02:16:08.559Z,0
2019-05-15T02:17:09.664Z,0
2019-05-15T02:18:11.222Z,0
2019-05-15T02:19:12.570Z,0
2019-05-15T02:20:13.912Z,0
2019-05-15T02:21:15.257Z,0
2019-05-15T02:22:18.775Z,0
2019-05-15T02:23:18.893Z,0
2019-05-15T02:24:19.225Z,0
2019-05-15T02:25:20.574Z,0
2019-05-15T02:26:21.920Z,0
2019-05-15T02:27:23.278Z,0
2019-05-15T02:28:24.615Z,0
2019-05-15T02:29:28.386Z,0
2019-05-15T02:30:30.157Z,0
2019-05-15T02:31:30.204Z,0
2019-05-15T02:32:30.268Z,0
2019-05-15T02:33:31.355Z,0
2019-05-15T02:34:32.714Z,0
2019-05-15T02:35:34.053Z,0
2019-05-15T02:36:35.393Z,0
2019-05-15T02:37:40.341Z,0
2019-05-15T02:38:40.833Z,0
2019-05-15T02:39:39.372Z,0
2019-05-15T02:40:41.124Z,0
2019-05-15T02:41:42.025Z,0
2019-05-15T02:42:43.378Z,0
2019-05-15T02:43:44.773Z,0
2019-05-15T02:44:46.109Z,0
2019-05-15T02:45:50.422Z,0
2019-05-15T02:46:49.907Z,0
2019-05-15T02:47:50.088Z,0
2019-05-15T02:48:51.435Z,0
2019-05-15T02:49:52.794Z,0
2019-05-15T02:50:54.145Z,0
2019-05-15T02:51:55.484Z,0
2019-05-15T02:53:00.278Z,0
2019-05-15T02:53:58.553Z,0
2019-05-15T02:54:59.914Z,0
2019-05-15T02:56:00.764Z,0
2019-05-15T02:57:02.120Z,0
2019-05-15T02:58:03.460Z,0
2019-05-15T02:59:04.809Z,0
2019-05-15T03:00:06.154Z,0
2019-05-15T03:01:09.319Z,0
2019-05-15T03:02:10.218Z,0
2019-05-15T03:03:10.189Z,0
2019-05-15T03:04:11.535Z,0
2019-05-15T03:05:12.889Z,0
2019-05-15T03:06:14.240Z,0
2019-05-15T03:07:18.978Z,0
2019-05-15T03:08:19.567Z,0
2019-05-15T03:09:18.836Z,0
2019-05-15T03:10:19.945Z,0
2019-05-15T03:11:20.917Z,0
2019-05-15T03:12:22.272Z,0
2019-05-15T03:13:23.625Z,0
2019-05-15T03:14:24.961Z,0
2019-05-15T03:15:28.905Z,0
2019-05-15T03:16:30.404Z,0
2019-05-15T03:17:29.642Z,0
2019-05-15T03:18:30.248Z,0
2019-05-15T03:19:31.597Z,0
2019-05-15T03:20:32.942Z,0
2019-05-15T03:21:34.300Z,0
2019-05-15T03:22:35.649Z,0
2019-05-15T03:23:40.017Z,0
2019-05-15T03:24:39.561Z,0
2019-05-15T03:25:40.382Z,0
2019-05-15T03:26:40.937Z,0
2019-05-15T03:27:42.286Z,0
2019-05-15T03:28:43.633Z,0
2019-05-15T03:29:45.165Z,0
2019-05-15T03:32:01.209Z,5
2019-05-15T03:32:55.735Z,5
2019-05-15T03:33:54.085Z,5
2019-05-15T03:34:56.218Z,5
2019-05-15T03:35:54.282Z,5
2019-05-15T03:36:54.497Z,5
2019-05-15T03:37:55.848Z,5
2019-05-15T03:38:58.698Z,11
2019-05-15T03:39:59.656Z,11
2019-05-15T03:40:59.894Z,11
2019-05-15T03:42:01.187Z,11
2019-05-15T03:43:02.535Z,11
2019-05-15T03:44:03.878Z,16
2019-05-15T03:45:05.259Z,16
2019-05-15T03:46:08.942Z,16
2019-05-15T03:47:09.213Z,22
2019-05-15T03:48:09.589Z,22
2019-05-15T03:49:10.521Z,22
2019-05-15T03:50:11.867Z,22
2019-05-15T03:51:13.225Z,28
2019-05-15T03:52:14.585Z,28
2019-05-15T03:53:18.958Z,28
2019-05-15T03:54:18.965Z,33
2019-05-15T03:55:18.679Z,33
2019-05-15T03:56:19.877Z,33
2019-05-15T03:57:23.161Z,39
2019-05-15T03:58:22.698Z,39
2019-05-15T03:59:24.055Z,39
2019-05-15T04:00:25.408Z,45
2019-05-15T04:01:35.777Z,45
2019-05-15T04:02:28.738Z,45
2019-05-15T04:03:30.155Z,50
2019-05-15T04:04:30.711Z,50
2019-05-15T04:05:32.070Z,56
2019-05-15T04:06:33.405Z,56
2019-05-15T04:07:34.760Z,56
2019-05-15T04:08:38.882Z,61
2019-05-15T04:09:38.706Z,61
2019-05-15T04:10:39.957Z,61
2019-05-15T04:11:40.060Z,67
2019-05-15T04:12:41.408Z,67
2019-05-15T04:13:42.766Z,67
2019-05-15T04:14:44.123Z,73
2019-05-15T04:15:45.475Z,73
2019-05-15T04:16:49.391Z,78
2019-05-15T04:17:49.283Z,78
2019-05-15T04:18:49.493Z,78
2019-05-15T04:19:50.821Z,84
2019-05-15T04:20:52.179Z,84
2019-05-15T04:21:53.543Z,84
2019-05-15T04:22:54.891Z,90
2019-05-15T04:23:58.596Z,90
2019-05-15T04:24:59.181Z,95
2019-05-15T04:25:59.043Z,95
2019-05-15T04:27:00.230Z,95
2019-05-15T04:28:01.590Z,101
2019-05-15T04:29:02.929Z,101
2019-05-15T04:30:04.283Z,101
2019-05-15T04:31:05.645Z,106
2019-05-15T04:32:10.128Z,106
2019-05-15T04:33:09.587Z,112
2019-05-15T04:34:09.653Z,112
2019-05-15T04:35:11.007Z,112
2019-05-15T04:36:12.357Z,118
2019-05-15T04:37:13.706Z,118
2019-05-15T04:38:15.066Z,123
2019-05-15T04:39:19.082Z,123
2019-05-15T04:40:19.367Z,123
2019-05-15T04:41:19.735Z,129
2019-05-15T04:42:20.562Z,129
2019-05-15T04:43:21.706Z,129
2019-05-15T04:44:23.052Z,135
2019-05-15T04:45:24.416Z,135
2019-05-15T04:46:25.768Z,135
2019-05-15T04:47:29.952Z,140
2019-05-15T04:48:28.952Z,140
2019-05-15T04:49:29.765Z,140
2019-05-15T04:50:31.112Z,146
2019-05-15T04:51:32.464Z,146
2019-05-15T04:52:33.821Z,146
2019-05-15T04:53:39.052Z,151
2019-05-15T04:54:39.919Z,151
2019-05-15T04:55:40.408Z,151
2019-05-15T04:56:39.971Z,157
2019-05-15T04:57:40.955Z,157
2019-05-15T04:58:41.863Z,157
2019-05-15T04:59:43.206Z,157
2019-05-15T05:00:44.559Z,163
2019-05-15T05:01:45.908Z,163
2019-05-15T05:02:49.507Z,163
2019-05-15T05:03:49.649Z,163
2019-05-15T05:04:49.896Z,163
2019-05-15T05:05:51.244Z,168
2019-05-15T05:06:52.603Z,168
2019-05-15T05:07:53.953Z,168
2019-05-15T05:08:55.318Z,168
2019-05-15T05:09:59.427Z,168
2019-05-15T05:10:59.255Z,168
2019-05-15T05:11:59.310Z,174
2019-05-15T05:13:00.666Z,174
2019-05-15T05:14:02.016Z,174
2019-05-15T05:15:03.372Z,174
2019-05-15T05:16:04.718Z,174
2019-05-15T05:17:08.799Z,180
2019-05-15T05:18:09.478Z,180
2019-05-15T05:19:08.951Z,180
2019-05-15T05:20:10.037Z,180
2019-05-15T05:21:11.497Z,180
2019-05-15T05:22:12.861Z,185
2019-05-15T05:23:14.207Z,185
2019-05-15T05:24:15.567Z,185
2019-05-15T05:25:18.293Z,185
2019-05-15T05:26:18.632Z,185
2019-05-15T05:27:19.554Z,191
2019-05-15T05:28:20.911Z,191
2019-05-15T05:29:22.266Z,191
2019-05-15T05:30:23.617Z,191
2019-05-15T05:31:24.966Z,191
2019-05-15T05:32:31.978Z,196
2019-05-15T05:33:28.618Z,196
2019-05-15T05:34:28.953Z,196
2019-05-15T05:35:30.308Z,196
2019-05-15T05:36:31.658Z,196
2019-05-15T05:37:33.011Z,202
2019-05-15T05:38:34.361Z,202
2019-05-15T05:39:35.717Z,202
2019-05-15T05:40:38.429Z,202
2019-05-15T05:41:39.164Z,208
2019-05-15T05:42:39.703Z,208
2019-05-15T05:43:41.054Z,208
2019-05-15T05:44:42.756Z,208
2019-05-15T05:45:43.721Z,236
2019-05-15T05:46:45.077Z,292
2019-05-15T05:47:48.583Z,365
2019-05-15T05:48:48.977Z,466
2019-05-15T05:49:49.137Z,489
2019-05-15T05:50:50.499Z,495
2019-05-15T05:51:51.843Z,500
2019-05-15T05:52:53.201Z,500
2019-05-15T05:53:54.558Z,506
2019-05-15T05:54:57.997Z,511
2019-05-15T05:55:58.021Z,523
2019-05-15T05:56:58.708Z,534
2019-05-15T05:57:59.903Z,556
2019-05-15T05:59:01.263Z,568
2019-05-15T06:00:02.618Z,590
2019-05-15T06:01:03.998Z,590
2019-05-15T06:02:07.976Z,630
2019-05-15T06:03:08.718Z,714
2019-05-15T06:04:08.046Z,748
2019-05-15T06:05:09.374Z,720
2019-05-15T06:06:10.737Z,714
2019-05-15T06:07:14.318Z,703
2019-05-15T06:08:13.422Z,703
2019-05-15T06:09:14.779Z,714
2019-05-15T06:10:18.170Z,725
2019-05-15T06:11:18.429Z,759
2019-05-15T06:12:19.034Z,883
2019-05-15T06:13:20.144Z,900
2019-05-15T06:14:21.502Z,793
2019-05-15T06:15:22.868Z,804
2019-05-15T06:16:24.267Z,821
2019-05-15T06:17:27.954Z,900
2019-05-15T06:18:28.121Z,871
2019-05-15T06:19:30.993Z,815
2019-05-15T06:20:29.631Z,821
2019-05-15T06:21:30.989Z,810
2019-05-15T06:22:32.359Z,838
2019-05-15T06:23:35.609Z,916
2019-05-15T06:24:35.051Z,922
2019-05-15T06:25:38.919Z,883
2019-05-15T06:26:38.612Z,871
2019-05-15T06:27:39.349Z,900
2019-05-15T06:28:40.422Z,950
2019-05-15T06:29:41.799Z,939
2019-05-15T06:30:43.164Z,916
2019-05-15T06:31:44.533Z,995
2019-05-15T06:33:01.863Z,995
2019-05-15T06:33:48.862Z,905
2019-05-15T06:34:48.664Z,939
2019-05-15T06:35:49.978Z,1046
2019-05-15T06:36:51.342Z,1046
2019-05-15T06:37:52.714Z,1029
2019-05-15T06:38:54.097Z,1046
2019-05-15T06:39:55.460Z,1023
2019-05-15T06:40:58.280Z,1046
2019-05-15T06:41:58.859Z,1068
2019-05-15T06:42:59.532Z,1051
2019-05-15T06:44:01.012Z,1023
2019-05-15T06:45:02.379Z,1057
2019-05-15T06:46:03.765Z,1091
2019-05-15T06:47:05.124Z,1147
2019-05-15T06:48:09.281Z,1220
2019-05-15T06:49:08.480Z,1282
2019-05-15T06:50:09.165Z,1271
2019-05-15T06:51:10.540Z,1164
2019-05-15T06:52:11.899Z,1153
2019-05-15T06:53:13.281Z,1198
2019-05-15T06:54:14.634Z,1293
2019-05-15T06:55:18.192Z,1383
2019-05-15T06:56:18.777Z,1338
2019-05-15T06:57:18.685Z,1175
2019-05-15T06:58:20.156Z,1096
2019-05-15T06:59:21.383Z,1153
2019-05-15T07:00:22.760Z,1226
2019-05-15T07:01:24.119Z,1164
2019-05-15T07:02:25.498Z,1192
2019-05-15T07:03:29.216Z,1226
2019-05-15T07:04:28.810Z,1192
2019-05-15T07:05:29.611Z,1175
2019-05-15T07:06:30.882Z,1220
2019-05-15T07:07:32.265Z,1299
2019-05-15T07:08:33.643Z,1276
2019-05-15T07:09:35.013Z,1260
2019-05-15T07:11:15.907Z,1316
2019-05-15T07:12:18.633Z,1276
2019-05-15T07:13:18.626Z,1321
2019-05-15T07:14:19.963Z,1479
2019-05-15T07:15:21.340Z,1546
2019-05-15T07:16:22.723Z,1456
2019-05-15T07:17:24.228Z,1305
2019-05-15T07:18:28.159Z,1254
2019-05-15T07:19:28.406Z,1305
2019-05-15T07:20:28.530Z,1428
2019-05-15T07:21:29.616Z,1395
2019-05-15T07:22:30.987Z,1310
2019-05-15T07:23:32.348Z,1321
2019-05-15T07:24:33.776Z,1389
2019-05-15T07:25:35.143Z,1513
2019-05-15T07:26:38.974Z,1558
2019-05-15T07:27:38.966Z,1451
2019-05-15T07:28:39.189Z,1530
2019-05-15T07:29:40.566Z,1518
2019-05-15T07:30:41.940Z,1417
2019-05-15T07:31:43.335Z,1350
2019-05-15T07:32:44.703Z,1473
2019-05-15T07:33:48.845Z,1580
2019-05-15T07:34:48.374Z,1490
2019-05-15T07:35:49.221Z,1411
2019-05-15T07:36:50.105Z,1507
2019-05-15T07:37:51.503Z,1417
2019-05-15T07:38:52.865Z,1310
2019-05-15T07:39:54.241Z,1372
2019-05-15T07:40:59.990Z,1389
2019-05-15T07:41:57.854Z,1316
2019-05-15T07:42:58.523Z,1327
2019-05-15T07:43:59.639Z,1428
2019-05-15T07:45:01.027Z,1530
2019-05-15T07:46:02.399Z,1698
2019-05-15T07:47:03.825Z,1653
2019-05-15T07:48:05.192Z,1558
2019-05-15T07:49:08.869Z,1614
2019-05-15T07:50:08.694Z,1760
2019-05-15T07:51:11.638Z,1721
2019-05-15T07:52:10.739Z,1603
2019-05-15T07:53:12.106Z,1563
2019-05-15T07:54:13.484Z,1535
2019-05-15T07:55:14.866Z,1743
2019-05-15T07:56:17.987Z,1918
2019-05-15T07:57:19.349Z,1890
2019-05-15T07:58:21.471Z,1805
2019-05-15T07:59:20.306Z,1681
2019-05-15T08:00:21.755Z,1743
2019-05-15T08:01:23.155Z,1912
2019-05-15T08:02:24.561Z,1828
2019-05-15T08:03:25.925Z,1642
2019-05-15T08:04:30.581Z,1586
2019-05-15T08:05:28.640Z,1738
2019-05-15T08:06:30.009Z,1749
2019-05-15T08:07:31.388Z,1659
2019-05-15T08:08:32.759Z,1755
2019-05-15T08:09:34.122Z,1732
2019-05-15T08:10:35.497Z,1743
2019-05-15T08:11:38.860Z,2098
2019-05-15T08:12:39.262Z,2131
2019-05-15T08:13:39.606Z,1996
2019-05-15T08:14:40.979Z,2075
2019-05-15T08:15:42.349Z,2019
2019-05-15T08:16:43.731Z,2086
2019-05-15T08:18:00.284Z,2165
2019-05-15T08:18:48.254Z,2458
2019-05-15T08:19:48.699Z,2655
2019-05-15T08:20:49.338Z,2559
2019-05-15T08:21:51.796Z,2559
2019-05-15T08:22:51.795Z,2604
2019-05-15T08:23:53.174Z,2610
2019-05-15T08:24:54.549Z,2531
2019-05-15T08:25:57.742Z,2480
2019-05-15T08:26:58.114Z,2441
2019-05-15T08:27:58.775Z,2570
2019-05-15T08:29:00.000Z,2761
2019-05-15T08:30:01.385Z,2806
2019-05-15T08:31:03.096Z,2868
2019-05-15T08:32:04.154Z,2868
2019-05-15T08:33:05.532Z,2863
2019-05-15T08:34:15.201Z,2885
2019-05-15T08:35:08.233Z,2913
2019-05-15T08:36:09.616Z,2846
2019-05-15T08:37:10.997Z,2778
2019-05-15T08:38:14.246Z,2806
2019-05-15T08:39:13.718Z,2812
2019-05-15T08:40:15.096Z,2829
2019-05-15T08:41:18.346Z,2835
2019-05-15T08:42:18.817Z,2823
2019-05-15T08:43:19.171Z,2835
2019-05-15T08:44:20.537Z,2936
2019-05-15T08:45:21.913Z,2835
2019-05-15T08:46:23.295Z,2795
2019-05-15T08:47:24.687Z,2795
2019-05-15T08:48:27.684Z,2941
2019-05-15T08:49:28.349Z,2992
2019-05-15T08:50:28.849Z,2941
2019-05-15T08:51:30.101Z,2874
2019-05-15T08:52:31.484Z,2953
2019-05-15T08:53:32.878Z,3009
2019-05-15T08:54:34.299Z,2941
2019-05-15T08:55:35.701Z,2868
2019-05-15T08:56:39.133Z,2986
2019-05-15T08:57:38.561Z,3026
2019-05-15T08:58:39.754Z,3037
2019-05-15T08:59:41.121Z,3127
2019-05-15T09:00:44.069Z,2975
2019-05-15T09:01:43.847Z,2941
2019-05-15T09:02:45.226Z,2868
2019-05-15T09:03:48.673Z,2655
2019-05-15T09:04:48.703Z,2610
2019-05-15T09:05:49.308Z,2649
2019-05-15T09:06:50.731Z,2761
2019-05-15T09:07:52.045Z,2874
2019-05-15T09:08:53.411Z,2947
2019-05-15T09:09:54.781Z,3166
2019-05-15T09:10:58.590Z,3076
2019-05-15T09:11:58.499Z,2902
2019-05-15T09:12:58.856Z,3020
2019-05-15T09:14:00.252Z,3093
2019-05-15T09:15:01.635Z,3065
2019-05-15T09:16:02.998Z,3127
2019-05-15T09:17:04.393Z,3093
2019-05-15T09:18:14.734Z,3054
2019-05-15T09:19:08.344Z,2958
2019-05-15T09:20:08.463Z,2947
2019-05-15T09:21:09.844Z,2947
2019-05-15T09:22:11.209Z,3138
2019-05-15T09:23:12.585Z,3127
2019-05-15T09:24:13.967Z,3206
2019-05-15T09:25:15.342Z,3189
2019-05-15T09:26:19.229Z,3285
2019-05-15T09:27:18.502Z,3268
2019-05-15T09:28:19.679Z,3330
2019-05-15T09:29:20.775Z,3206
2019-05-15T09:30:22.162Z,3127
2019-05-15T09:31:23.547Z,3285
2019-05-15T09:32:24.928Z,3217
2019-05-15T09:33:28.428Z,3138
2019-05-15T09:34:44.925Z,3093
2019-05-15T09:35:29.009Z,3256
2019-05-15T09:36:30.381Z,3234
2019-05-15T09:37:33.621Z,3133
2019-05-15T09:38:33.103Z,3031
2019-05-15T09:39:34.479Z,3071
2019-05-15T09:40:45.184Z,2739
2019-05-15T09:41:38.054Z,1828
2019-05-15T09:42:39.009Z,2120
2019-05-15T09:43:42.195Z,3195
2019-05-15T09:44:41.252Z,3290
2019-05-15T09:45:42.632Z,3093
2019-05-15T09:46:44.002Z,3076
2019-05-15T09:47:48.102Z,3105
2019-05-15T09:48:51.250Z,2975
2019-05-15T09:49:48.470Z,3054
2019-05-15T09:50:49.669Z,3183
2019-05-15T09:51:50.787Z,3240
2019-05-15T09:52:52.178Z,3009
2019-05-15T09:53:53.542Z,3223
2019-05-15T09:54:54.919Z,3358
2019-05-15T09:55:56.307Z,3380
2019-05-15T09:56:58.515Z,3375
2019-05-15T09:57:59.215Z,3256
2019-05-15T09:59:00.383Z,3307
2019-05-15T10:00:01.763Z,3206
2019-05-15T10:01:03.152Z,3380
2019-05-15T10:02:04.528Z,3397
2019-05-15T10:03:05.916Z,3414
2019-05-15T10:04:08.314Z,3358
2019-05-15T10:05:11.222Z,3296
2019-05-15T10:06:10.005Z,3251
2019-05-15T10:07:11.373Z,3116
2019-05-15T10:08:12.752Z,2806
2019-05-15T10:09:14.214Z,2981
2019-05-15T10:10:15.598Z,3369
2019-05-15T10:11:19.313Z,3481
2019-05-15T10:12:18.399Z,3341
2019-05-15T10:13:19.697Z,3307
2019-05-15T10:14:21.080Z,3420
2019-05-15T10:15:22.485Z,3470
2019-05-15T10:16:23.857Z,3127
2019-05-15T10:17:25.239Z,3015
2019-05-15T10:18:28.216Z,3301
2019-05-15T10:19:29.040Z,1935
2019-05-15T10:20:29.331Z,3487
2019-05-15T10:21:32.554Z,3487
2019-05-15T10:22:32.048Z,3363
2019-05-15T10:23:33.429Z,3335
2019-05-15T10:24:34.808Z,3161
2019-05-15T10:25:36.198Z,2823
2019-05-15T10:26:39.287Z,3166
2019-05-15T10:27:39.753Z,3358
2019-05-15T10:28:40.333Z,3380
2019-05-15T10:29:41.607Z,3425
2019-05-15T10:30:42.993Z,3369
2019-05-15T10:31:44.376Z,3341
2019-05-15T10:32:48.472Z,3313
2019-05-15T10:33:48.949Z,3386
2019-05-15T10:34:48.479Z,3352
2019-05-15T10:35:49.877Z,3465
2019-05-15T10:36:51.244Z,3369
2019-05-15T10:37:52.629Z,3453
2019-05-15T10:38:54.050Z,3481
2019-05-15T10:39:55.388Z,3442
2019-05-15T10:41:08.106Z,3532
2019-05-15T10:41:58.280Z,3521
2019-05-15T10:42:59.664Z,3521
2019-05-15T10:44:01.052Z,3543
2019-05-15T10:45:02.425Z,3453
2019-05-15T10:46:03.878Z,3341
2019-05-15T10:47:05.242Z,3465
2019-05-15T10:48:09.156Z,3667
2019-05-15T10:49:08.632Z,3661
2019-05-15T10:50:09.326Z,1260
2019-05-15T10:51:10.697Z,2700
2019-05-15T10:52:12.077Z,995
2019-05-15T10:53:13.458Z,939
2019-05-15T10:54:14.833Z,3746
2019-05-15T10:55:18.814Z,3751
2019-05-15T10:56:18.565Z,3751
2019-05-15T10:57:19.061Z,3633
2019-05-15T10:58:22.224Z,3881
2019-05-15T10:59:21.591Z,3954
2019-05-15T11:00:22.964Z,4083
2019-05-15T11:01:24.344Z,798
2019-05-15T11:02:25.721Z,1226
2019-05-15T11:03:29.629Z,3611
2019-05-15T11:04:28.797Z,1372
2019-05-15T11:05:41.049Z,3189
2019-05-15T11:06:31.132Z,3037
2019-05-15T11:07:32.502Z,3003
2019-05-15T11:08:33.884Z,2953
2019-05-15T11:09:37.549Z,2874
2019-05-15T11:10:41.513Z,2840
2019-05-15T11:11:37.961Z,2930
2019-05-15T11:12:39.343Z,3009
2019-05-15T11:13:40.800Z,2992
2019-05-15T11:14:42.179Z,2925
2019-05-15T11:15:43.546Z,2885
2019-05-15T11:16:44.888Z,2812
2019-05-15T11:17:48.976Z,2885
2019-05-15T11:18:48.177Z,2868
2019-05-15T11:19:49.911Z,2823
2019-05-15T11:20:50.365Z,2863
2019-05-15T11:21:51.744Z,2891
2019-05-15T11:22:53.121Z,2919
2019-05-15T11:23:54.499Z,2840
2019-05-15T11:24:55.883Z,2835
2019-05-15T11:25:58.082Z,2941
2019-05-15T11:26:59.440Z,2930
2019-05-15T11:27:59.940Z,2970
2019-05-15T11:29:01.327Z,3048
2019-05-15T11:30:02.708Z,3251
2019-05-15T11:31:04.083Z,3026
2019-05-15T11:32:05.496Z,3003
2019-05-15T11:33:09.315Z,3060
2019-05-15T11:34:09.312Z,3088
2019-05-15T11:35:09.530Z,3020
2019-05-15T11:36:10.908Z,2761
2019-05-15T11:37:12.294Z,2784
2019-05-15T11:38:16.379Z,1338
2019-05-15T11:39:15.030Z,1215
2019-05-15T11:40:18.690Z,804
2019-05-15T11:41:19.227Z,2992
2019-05-15T11:42:20.313Z,3093
2019-05-15T11:43:20.457Z,731
2019-05-15T11:44:21.818Z,1586
2019-05-15T11:45:23.196Z,2728
2019-05-15T11:46:25.835Z,2660
2019-05-15T11:47:27.770Z,2767
2019-05-15T11:48:29.600Z,2953
2019-05-15T11:49:29.057Z,3015
2019-05-15T11:50:30.010Z,2739
2019-05-15T11:51:31.367Z,2598
2019-05-15T11:52:36.303Z,2733
2019-05-15T11:53:34.101Z,2902
2019-05-15T11:54:35.485Z,2908
2019-05-15T11:55:38.455Z,2925
2019-05-15T11:56:39.130Z,3015
2019-05-15T11:57:46.789Z,1546
2019-05-15T11:58:40.927Z,630
2019-05-15T11:59:44.617Z,2941
2019-05-15T12:00:43.663Z,2683
2019-05-15T12:01:45.033Z,2463
2019-05-15T12:02:46.420Z,2407
2019-05-15T12:03:47.891Z,2486
2019-05-15T12:04:49.268Z,2643
2019-05-15T12:05:50.646Z,2913
2019-05-15T12:06:59.798Z,3037
2019-05-15T12:07:53.375Z,3060
2019-05-15T12:08:54.753Z,2970
2019-05-15T12:09:57.954Z,2761
2019-05-15T12:10:59.233Z,2688
2019-05-15T12:11:58.819Z,2756
2019-05-15T12:13:00.224Z,2930
2019-05-15T12:14:01.606Z,2998
2019-05-15T12:15:03.067Z,2902
2019-05-15T12:16:04.328Z,2902
2019-05-15T12:17:12.464Z,2919
2019-05-15T12:18:08.845Z,2896
2019-05-15T12:19:13.551Z,2941
2019-05-15T12:20:10.729Z,3003
2019-05-15T12:21:11.195Z,2998
2019-05-15T12:22:12.575Z,2885
2019-05-15T12:23:13.958Z,2880
2019-05-15T12:24:15.343Z,3200
2019-05-15T12:25:16.734Z,3071
2019-05-15T12:26:18.122Z,2750
2019-05-15T12:27:19.495Z,2694
2019-05-15T12:28:20.881Z,2700
2019-05-15T12:29:22.253Z,2688
2019-05-15T12:30:23.641Z,2660
2019-05-15T12:31:25.015Z,2626
2019-05-15T12:32:33.180Z,2593
2019-05-15T12:33:29.067Z,2576
2019-05-15T12:34:29.085Z,2413
2019-05-15T12:35:30.455Z,2272
2019-05-15T12:36:50.778Z,2210
2019-05-15T12:37:33.176Z,2154
2019-05-15T12:38:34.560Z,2148
2019-05-15T12:39:35.937Z,2013
2019-05-15T13:00:19.358Z,1440
2019-05-15T13:01:21.844Z,1451
2019-05-15T13:02:22.076Z,1479
2019-05-15T13:03:23.455Z,1485
2019-05-15T13:04:24.838Z,1485
2019-05-15T13:05:28.534Z,1479
2019-05-15T13:06:28.551Z,1473
2019-05-15T13:07:28.887Z,1456
2019-05-15T13:08:30.293Z,1440
2019-05-15T13:09:31.674Z,1428
2019-05-15T13:10:33.052Z,1411
2019-05-15T13:12:13.989Z,1411
2019-05-15T13:13:15.341Z,1389
2019-05-15T13:14:18.720Z,1383
2019-05-15T13:15:18.946Z,1383
2019-05-15T13:16:19.391Z,1361
2019-05-15T13:17:20.765Z,1355
2019-05-15T13:18:22.149Z,1333
2019-05-15T13:19:23.521Z,1321
2019-05-15T13:20:24.935Z,1282
2019-05-15T13:21:26.307Z,1271
2019-05-15T13:22:28.135Z,1248
2019-05-15T13:23:29.074Z,1231
2019-05-15T13:24:30.445Z,1186
2019-05-15T13:25:31.833Z,1153
2019-05-15T13:26:33.268Z,1147
2019-05-15T13:27:35.125Z,1125
2019-05-15T13:28:36.511Z,1113
2019-05-15T13:29:37.905Z,1108
2019-05-15T13:30:41.573Z,1091
2019-05-15T13:31:40.621Z,556
2019-05-15T13:32:42.012Z,1130
2019-05-15T13:33:43.386Z,1164
2019-05-15T13:34:44.761Z,1108
2019-05-15T13:35:48.478Z,1102
2019-05-15T13:36:48.544Z,1085
2019-05-15T13:37:49.442Z,1096
2019-05-15T13:38:50.261Z,1091
2019-05-15T13:39:51.650Z,1096
2019-05-15T13:40:53.026Z,1080
2019-05-15T13:41:54.408Z,1080
2019-05-15T13:42:55.778Z,1068
2019-05-15T13:43:58.361Z,1074
2019-05-15T13:44:58.748Z,1074
2019-05-15T13:45:59.888Z,1080
2019-05-15T13:47:01.270Z,1085
2019-05-15T13:48:02.672Z,1108
2019-05-15T13:49:04.118Z,1125
2019-05-15T13:50:07.779Z,1113
2019-05-15T13:51:06.956Z,1108
2019-05-15T13:52:08.559Z,1113
2019-05-15T13:53:10.934Z,1125
2019-05-15T13:54:11.047Z,1147
2019-05-15T13:55:12.441Z,1164
2019-05-15T13:56:13.816Z,1203
2019-05-15T13:57:15.191Z,1237
2019-05-15T13:58:16.572Z,1293
2019-05-15T13:59:17.952Z,1344
2019-05-15T14:00:19.343Z,1389
2019-05-15T14:01:20.747Z,1501
2019-05-15T14:02:22.159Z,1636
2019-05-15T14:03:23.521Z,1687
2019-05-15T14:04:24.904Z,2041
2019-05-15T14:05:29.453Z,2446
2019-05-15T14:06:28.696Z,2396
2019-05-15T14:07:37.719Z,2120
2019-05-15T14:08:30.399Z,1957
2019-05-15T14:09:33.697Z,1974
2019-05-15T14:10:33.161Z,1963
2019-05-15T14:11:34.541Z,1861
2019-05-15T14:12:38.220Z,1929
2019-05-15T14:13:39.154Z,1923
2019-05-15T14:14:38.739Z,1884
2019-05-15T14:15:40.287Z,1861
2019-05-15T14:16:41.796Z,1749
2019-05-15T14:17:43.163Z,1614
2019-05-15T14:18:44.590Z,1698
2019-05-15T14:19:45.968Z,1935
2019-05-15T14:20:48.919Z,1918
2019-05-15T14:21:49.049Z,1822
2019-05-15T14:22:50.038Z,1687
2019-05-15T14:23:51.532Z,1659
2019-05-15T14:24:52.917Z,1620
2019-05-15T14:25:54.283Z,1625
2019-05-15T14:26:55.671Z,1828
2019-05-15T14:27:59.080Z,1850
2019-05-15T14:28:58.659Z,1794